Time;durP1;ratioP1;P1;durP2;ratioP2;P2;SDS_P1;SDS_P2;PMS_P1;PMS_P2;Temp;Humidity;BMP_temperature;BMP_pressure;BME280_temperature;BME280_humidity;BME280_pressure;Samples;Min_cycle;Max_cycle;Signal;HPM_P1;HPM_P2
2023/09/14 00:04:43;;;;;;;10.80;9.10;;;;;;;18.85;79.60;98533.78;435110;1256;112236;-43
2023/09/14 00:24:56;;;;;;;9.10;7.60;;;;;;;18.69;80.09;98535.84;434918;1257;99262;-44
2023/09/14 00:35:03;;;;;;;7.90;6.50;;;;;;;18.55;80.42;98537.09;434553;1253;477467;-42
2023/09/14 00:45:09;;;;;;;9.50;6.80;;;;;;;18.54;80.83;98531.53;434966;1253;99228;-43
2023/09/14 01:05:28;;;;;;;10.60;6.90;;;;;;;18.55;80.91;98523.21;435033;1256;107961;-42
2023/09/14 01:15:38;;;;;;;8.80;6.50;;;;;;;18.50;81.14;98527.77;435076;1257;99234;-42
2023/09/14 01:25:52;;;;;;;8.10;7.00;;;;;;;18.52;81.44;98526.30;434903;1257;108228;-43
2023/09/14 01:46:10;;;;;;;10.60;6.80;;;;;;;18.35;81.78;98525.65;436190;1255;111368;-41
2023/09/14 01:56:17;;;;;;;8.70;7.90;;;;;;;18.35;82.02;98527.16;435205;1256;107571;-41
2023/09/14 02:06:24;;;;;;;8.60;7.70;;;;;;;18.27;82.39;98536.88;435303;1255;99318;-41
2023/09/14 02:16:31;;;;;;;8.70;7.80;;;;;;;18.21;82.60;98548.38;435213;1256;107899;-42
2023/09/14 02:36:45;;;;;;;8.70;7.50;;;;;;;17.89;84.22;98568.16;435238;1256;110782;-42
2023/09/14 02:46:52;;;;;;;8.00;7.20;;;;;;;17.73;84.54;98580.67;435274;1256;108348;-42
2023/09/14 02:56:59;;;;;;;9.00;8.10;;;;;;;17.59;84.84;98585.98;435059;1252;99346;-41
2023/09/14 03:07:05;;;;;;;8.10;7.30;;;;;;;17.39;85.24;98594.58;435172;1256;108358;-41
2023/09/14 03:17:11;;;;;;;6.60;5.80;;;;;;;17.28;85.43;98605.70;435243;1254;99246;-41
2023/09/14 03:27:19;;;;;;;;;;;;;;;17.22;85.67;98613.09;435047;1253;112232;-43
2023/09/14 03:57:37;;;;;;;6.90;6.20;;;;;;;17.16;85.32;98637.05;435290;1252;108079;-42
2023/09/14 04:07:44;;;;;;;6.60;5.70;;;;;;;17.09;85.65;98656.46;435128;1256;97973;-42
2023/09/14 04:17:50;;;;;;;6.60;6.00;;;;;;;17.00;85.57;98674.59;435292;1256;111298;-43
2023/09/14 04:27:57;;;;;;;7.50;6.10;;;;;;;16.99;85.46;98689.71;435197;1256;107496;-43
2023/09/14 04:38:04;;;;;;;7.10;6.10;;;;;;;16.98;85.33;98700.29;435159;1256;98061;-43
2023/09/14 04:48:12;;;;;;;9.90;5.70;;;;;;;16.94;85.31;98713.00;434847;1253;108250;-43
2023/09/14 04:58:18;;;;;;;6.40;5.80;;;;;;;16.99;85.43;98720.21;434918;1259;99237;-41
2023/09/14 05:08:25;;;;;;;8.30;5.70;;;;;;;16.96;85.20;98728.71;435009;1253;111144;-43
2023/09/14 05:18:32;;;;;;;8.00;6.10;;;;;;;16.95;85.18;98737.36;434944;1259;108762;-43
2023/09/14 05:28:38;;;;;;;7.60;6.60;;;;;;;16.92;85.16;98746.67;435002;1257;97986;-43
2023/09/14 05:48:50;;;;;;;7.90;7.10;;;;;;;17.06;85.43;98763.23;435103;1256;99237;-42
2023/09/14 05:58:57;;;;;;;9.60;8.70;;;;;;;17.18;85.35;98772.77;435072;1251;110916;-43
2023/09/14 06:09:05;;;;;;;9.80;8.10;;;;;;;17.19;85.89;98781.64;434983;1256;107345;-42
2023/09/14 06:19:12;;;;;;;9.90;8.40;;;;;;;17.24;85.85;98782.01;435243;1256;99324;-43
2023/09/14 06:29:20;;;;;;;11.90;9.20;;;;;;;17.29;85.74;98788.98;435366;1253;108285;-43
2023/09/14 06:39:27;;;;;;;9.80;8.00;;;;;;;17.51;86.10;98796.68;435122;1256;99359;-43
2023/09/14 06:49:34;;;;;;;8.50;7.60;;;;;;;17.85;85.63;98805.08;435100;1255;112837;-42
2023/09/14 06:59:41;;;;;;;12.30;8.00;;;;;;;17.68;85.21;98816.33;435200;1256;107275;-43
2023/09/14 07:30:00;;;;;;;8.90;7.90;;;;;;;17.48;84.74;98840.85;435505;1256;99221;-41
2023/09/14 07:40:07;;;;;;;11.80;8.50;;;;;;;17.67;84.54;98851.85;435094;1253;113062;-42
2023/09/14 07:50:15;;;;;;;10.30;8.80;;;;;;;17.75;84.43;98851.80;435083;1253;107112;-42
2023/09/14 08:00:22;;;;;;;13.00;10.20;;;;;;;17.79;84.24;98858.70;435272;1253;98942;-41
2023/09/14 08:10:29;;;;;;;11.30;10.20;;;;;;;18.22;84.14;98861.17;435162;1255;108560;-44
2023/09/14 08:20:37;;;;;;;10.60;9.30;;;;;;;18.48;83.54;98864.89;435082;1254;99240;-42
2023/09/14 08:30:45;;;;;;;11.10;10.00;;;;;;;18.68;83.32;98863.56;435205;1256;112080;-42
2023/09/14 08:40:53;;;;;;;10.00;8.60;;;;;;;19.01;82.74;98868.47;435045;1256;106980;-44
2023/09/14 08:51:02;;;;;;;12.70;6.60;;;;;;;19.22;82.09;98873.02;435292;1253;99259;-42
2023/09/14 09:01:12;;;;;;;7.10;6.10;;;;;;;19.56;81.87;98874.02;435183;1255;108050;-43
2023/09/14 09:11:20;;;;;;;6.90;6.20;;;;;;;19.92;80.89;98885.09;435320;1256;97948;-42
2023/09/14 09:21:30;;;;;;;7.30;6.60;;;;;;;20.09;80.02;98883.17;435113;1256;112754;-42
2023/09/14 09:41:47;;;;;;;10.80;5.40;;;;;;;20.61;77.95;98880.16;435259;1253;98872;-42
2023/09/14 09:51:53;;;;;;;8.30;5.10;;;;;;;20.66;77.16;98885.47;435267;1256;108433;-42
2023/09/14 10:02:00;;;;;;;5.60;4.30;;;;;;;20.33;76.22;98891.77;435186;1256;98832;-42
2023/09/14 10:12:07;;;;;;;4.30;4.00;;;;;;;20.59;76.38;98893.61;435116;1265;112038;-41
2023/09/14 10:22:15;;;;;;;5.20;4.40;;;;;;;20.84;75.41;98898.83;435094;1256;107809;-43
2023/09/14 10:42:29;;;;;;;4.00;3.40;;;;;;;20.61;74.64;98912.84;435190;1264;107968;-43
2023/09/14 10:52:37;;;;;;;5.30;3.70;;;;;;;20.48;74.52;98918.91;435292;1254;99252;-43
2023/09/14 11:03:00;;;;;;;;;;;;;;;20.34;74.24;98924.15;435260;1265;111769;-42
2023/09/14 11:13:35;;;;;;;3.30;3.10;;;;;;;20.13;74.03;98932.96;435266;1254;109460;-42
2023/09/14 11:23:44;;;;;;;7.40;3.60;;;;;;;20.11;73.86;98938.95;435135;1256;99149;-42
2023/09/14 11:33:55;;;;;;;9.10;4.70;;;;;;;19.81;73.42;98949.48;435214;1256;107884;-43
2023/09/14 12:04:37;;;;;;;3.50;3.20;;;;;;;19.62;73.40;98963.53;435308;1256;107305;-42
2023/09/14 12:14:45;;;;;;;2.90;2.60;;;;;;;19.63;73.58;98967.49;435214;1254;98577;-44
2023/09/14 12:24:51;;;;;;;2.70;2.40;;;;;;;19.83;73.37;98967.66;435218;1264;107653;-42
2023/09/14 12:34:58;;;;;;;6.60;3.50;;;;;;;19.89;73.25;98967.62;434916;1257;361712;-42
2023/09/14 12:55:13;;;;;;;8.50;4.50;;;;;;;20.18;72.56;98959.92;435130;1254;109463;-41
2023/09/14 13:05:23;;;;;;;3.40;3.10;;;;;;;20.36;72.08;98958.61;435223;1254;99320;-43
2023/09/14 13:15:32;;;;;;;5.10;2.60;;;;;;;20.41;71.45;98961.15;435219;1266;107655;-43
2023/09/14 13:25:39;;;;;;;4.40;2.10;;;;;;;20.41;70.76;98963.67;435251;1256;99230;-43
2023/09/14 13:35:46;;;;;;;;;;;;;;;20.17;70.32;98967.34;435120;1254;110550;-42
2023/09/14 14:06:06;;;;;;;3.50;2.10;;;;;;;20.20;67.93;98962.91;435279;1257;108894;-41
2023/09/14 14:26:20;;;;;;;5.40;2.70;;;;;;;20.08;66.97;98962.17;435204;1254;111471;-42
2023/09/14 14:36:29;;;;;;;2.80;2.20;;;;;;;19.91;66.68;98971.89;435109;1257;109515;-43
2023/09/14 14:46:35;;;;;;;7.00;2.40;;;;;;;19.88;67.07;98970.41;435295;1254;99253;-43
2023/09/14 14:56:41;;;;;;;2.90;2.00;;;;;;;19.77;66.99;98970.45;435314;1256;109611;-42
2023/09/14 15:06:48;;;;;;;3.40;1.80;;;;;;;19.59;66.86;98972.30;434657;1257;98810;-42
2023/09/14 15:16:55;;;;;;;2.80;1.60;;;;;;;19.55;67.06;98983.80;434344;1257;112957;-44
2023/09/14 15:27:02;;;;;;;2.10;1.90;;;;;;;19.54;67.41;98992.17;434307;1254;106694;-42
2023/09/14 15:37:09;;;;;;;5.10;2.40;;;;;;;19.42;67.39;98988.49;434315;1253;99762;-42
2023/09/14 15:47:16;;;;;;;2.60;1.90;;;;;;;19.33;67.37;99004.73;434260;1258;109290;-43
2023/09/14 15:57:23;;;;;;;67.70;14.60;;;;;;;19.22;67.51;99017.80;434294;1253;99296;-42
2023/09/14 16:07:31;;;;;;;9.50;2.60;;;;;;;19.17;67.60;99023.49;434309;1258;112728;-42
2023/09/14 16:17:36;;;;;;;2.70;2.00;;;;;;;19.15;67.93;99033.73;434570;1258;107624;-42
2023/09/14 16:27:44;;;;;;;3.80;3.00;;;;;;;19.09;68.25;99033.12;434311;1257;98072;-42
2023/09/14 16:37:51;;;;;;;3.20;2.60;;;;;;;18.89;68.29;99032.95;434315;1260;107695;-42
2023/09/14 16:58:03;;;;;;;15.20;9.00;;;;;;;18.61;69.03;99035.20;435120;1257;111770;-46
2023/09/14 17:08:11;;;;;;;10.30;5.80;;;;;;;18.61;69.25;99036.86;435152;1257;107370;-43
2023/09/14 17:18:18;;;;;;;8.30;4.90;;;;;;;18.61;69.76;99044.36;435235;1253;98015;-43
2023/09/14 17:38:30;;;;;;;6.80;3.80;;;;;;;18.44;70.36;99054.95;435068;1256;99231;-42
2023/09/14 17:48:37;;;;;;;9.50;4.10;;;;;;;18.27;70.61;99063.21;435112;1256;110987;-43
2023/09/14 17:58:44;;;;;;;7.00;4.10;;;;;;;18.03;71.20;99065.90;435142;1258;109049;-43
2023/09/14 18:08:51;;;;;;;8.50;5.30;;;;;;;17.78;71.30;99074.75;435279;1253;99241;-43
2023/09/14 18:18:58;;;;;;;8.40;4.70;;;;;;;17.54;71.71;99081.20;435173;1256;108069;-42
2023/09/14 18:29:06;;;;;;;6.50;4.30;;;;;;;17.36;72.08;99097.09;435137;1257;99323;-42
2023/09/14 18:59:25;;;;;;;10.30;5.40;;;;;;;16.95;73.24;99112.23;435076;1256;99174;-43
2023/09/14 19:09:38;;;;;;;12.80;6.40;;;;;;;16.83;73.69;99113.84;435217;1256;108319;-41
2023/09/14 19:19:47;;;;;;;10.60;5.80;;;;;;;16.76;73.98;99119.23;435186;1256;99253;-42
2023/09/14 19:29:53;;;;;;;8.70;6.70;;;;;;;16.55;74.32;99127.35;435277;1256;112999;-43
2023/09/14 19:40:00;;;;;;;15.00;7.60;;;;;;;16.32;74.79;99130.31;435193;1253;107824;-41
2023/09/14 19:50:09;;;;;;;8.80;6.70;;;;;;;16.08;74.81;99135.65;435258;1257;99250;-41
2023/09/14 20:00:15;;;;;;;;;;;;;;;15.84;74.87;99144.82;435081;1256;108011;-43
2023/09/14 20:20:32;;;;;;;131.20;49.20;;;;;;;15.05;75.28;99147.23;435233;1256;111334;-42
2023/09/14 20:30:39;;;;;;;29.80;12.10;;;;;;;14.87;75.77;99144.55;435231;1256;107617;-43
2023/09/14 20:40:47;;;;;;;24.80;11.60;;;;;;;14.75;76.03;99145.08;434951;1252;99247;-43
2023/09/14 21:00:59;;;;;;;20.40;6.80;;;;;;;14.53;76.59;99156.19;435061;1256;99266;-42
2023/09/14 21:21:11;;;;;;;29.40;12.20;;;;;;;14.26;77.20;99166.39;435111;1256;107117;-43
2023/09/14 21:41:23;;;;;;;24.50;8.90;;;;;;;13.97;77.51;99170.10;435049;1253;107342;-41
2023/09/14 22:01:36;;;;;;;14.30;8.20;;;;;;;14.03;77.99;99183.98;435027;1253;112982;-42
2023/09/14 22:11:44;;;;;;;16.10;8.80;;;;;;;13.91;78.17;99189.90;435210;1256;108060;-42
2023/09/14 22:21:55;;;;;;;15.90;7.90;;;;;;;13.74;78.06;99191.30;435297;1256;97980;-43
2023/09/14 22:52:11;;;;;;;14.20;7.70;;;;;;;13.53;78.72;99191.88;435155;1256;111165;-42
2023/09/14 23:22:30;;;;;;;12.50;7.60;;;;;;;13.09;79.29;99182.96;435165;1253;108165;-43
2023/09/14 23:32:37;;;;;;;13.90;7.10;;;;;;;13.22;79.52;99181.67;435138;1256;99269;-42
2023/09/14 23:42:45;;;;;;;10.90;7.30;;;;;;;13.11;79.43;99182.36;435270;1252;112210;-42
